createdAt,value
2022-10-15T00:00:25.949Z,42.80
2022-10-15T00:02:29.135Z,44.50
2022-10-15T00:04:32.434Z,44.33
2022-10-15T00:06:35.939Z,39.77
2022-10-15T00:08:39.947Z,41.40
2022-10-15T00:10:44.238Z,42.70
2022-10-15T00:12:49.138Z,41.90
2022-10-15T00:14:52.561Z,42.87
2022-10-15T00:16:55.784Z,43.80
2022-10-15T00:19:00.114Z,42.73
2022-10-15T00:21:03.545Z,46.50
2022-10-15T00:23:06.689Z,41.07
2022-10-15T00:25:10.890Z,42.70
2022-10-15T00:27:14.098Z,45.47
2022-10-15T00:29:18.633Z,47.10
2022-10-15T00:31:24.549Z,45.60
2022-10-15T00:33:27.946Z,42.50
2022-10-15T00:35:31.240Z,47.23
2022-10-15T00:37:34.604Z,43.70
2022-10-15T00:39:38.496Z,45.50
2022-10-15T00:41:43.745Z,47.10
2022-10-15T00:43:49.276Z,41.30
2022-10-15T00:45:55.135Z,42.80
2022-10-15T00:47:58.408Z,42.70
2022-10-15T00:50:06.313Z,37.00
2022-10-15T00:52:13.909Z,40.13
2022-10-15T00:54:18.052Z,40.77
2022-10-15T00:56:23.780Z,42.30
2022-10-15T00:58:30.879Z,39.73
2022-10-15T01:00:35.484Z,42.53
2022-10-15T01:02:40.386Z,40.40
2022-10-15T01:04:44.088Z,44.77
2022-10-15T01:06:47.888Z,43.37
2022-10-15T01:08:51.540Z,44.20
2022-10-15T01:11:05.306Z,42.60
2022-10-15T01:13:15.917Z,43.23
2022-10-15T01:15:24.704Z,44.73
2022-10-15T01:17:33.839Z,43.30
2022-10-15T01:20:05.073Z,43.47
2022-10-15T01:22:12.251Z,42.30
2022-10-15T01:24:51.616Z,41.23
2022-10-15T01:27:33.622Z,43.77
2022-10-15T01:30:23.640Z,44.03
2022-10-15T01:32:30.342Z,41.90
2022-10-15T01:34:39.142Z,41.77
2022-10-15T06:02:16.057Z,36.80
2022-10-15T06:04:19.679Z,37.70
2022-10-15T06:06:24.419Z,37.43
2022-10-15T06:08:28.808Z,38.97
2022-10-15T06:10:32.266Z,38.13
2022-10-15T06:12:35.528Z,37.87
2022-10-15T06:14:38.677Z,40.77
2022-10-15T06:16:42.101Z,37.60
2022-10-15T06:18:46.995Z,40.53
2022-10-15T06:20:53.184Z,38.23
2022-10-15T06:22:59.410Z,40.50
2022-10-15T06:25:02.608Z,38.87
2022-10-15T06:27:05.777Z,40.17
2022-10-15T06:29:09.059Z,39.67
2022-10-15T06:31:12.380Z,41.00
2022-10-15T06:33:17.363Z,40.00
2022-10-15T06:35:23.334Z,39.07
2022-10-15T06:37:30.617Z,35.77
2022-10-15T06:39:33.737Z,38.80
2022-10-15T06:41:37.176Z,40.47
2022-10-15T06:43:40.624Z,40.73
2022-10-15T06:45:45.143Z,43.63
2022-10-15T06:47:48.320Z,41.50
2022-10-15T06:49:51.666Z,40.60
2022-10-15T06:52:01.000Z,43.50
2022-10-15T06:54:07.338Z,43.17
2022-10-15T06:56:10.485Z,43.00
2022-10-15T06:58:16.293Z,45.93
2022-10-15T07:00:19.550Z,43.53
2022-10-15T07:02:23.146Z,43.27
2022-10-15T07:04:26.660Z,40.70
2022-10-15T07:06:29.838Z,45.50
2022-10-15T07:08:35.227Z,39.07
2022-10-15T07:10:38.412Z,44.37
2022-10-15T07:12:42.098Z,41.87
2022-10-15T07:14:45.594Z,44.20
2022-10-15T07:16:48.786Z,44.77
2022-10-15T07:18:52.275Z,41.53
2022-10-15T07:20:55.674Z,43.47
2022-10-15T07:22:59.645Z,44.90
2022-10-15T07:25:04.304Z,44.30
2022-10-15T07:27:18.422Z,44.73
2022-10-15T07:29:22.666Z,45.47
2022-10-15T07:31:26.292Z,45.33
2022-10-15T07:33:29.759Z,44.20
2022-10-15T07:35:34.377Z,50.40
2022-10-15T07:37:37.874Z,46.70
2022-10-15T07:39:41.869Z,48.30
2022-10-15T07:47:01.984Z,45.67
2022-10-15T07:49:09.322Z,43.57
2022-10-15T07:51:13.541Z,44.80
2022-10-15T07:56:37.679Z,42.73
2022-10-15T07:58:41.577Z,41.47
2022-10-15T08:00:44.937Z,43.03
2022-10-15T08:02:49.590Z,43.70
2022-10-15T08:04:52.915Z,41.47
2022-10-15T08:06:57.473Z,47.43
2022-10-15T08:09:04.941Z,44.23
2022-10-15T08:11:08.967Z,48.00
2022-10-15T08:13:12.361Z,48.00
2022-10-15T08:15:15.837Z,46.57
2022-10-15T08:17:19.232Z,44.20
2022-10-15T08:19:23.835Z,47.30
2022-10-15T08:21:27.246Z,45.30
2022-10-15T08:23:30.583Z,43.40
2022-10-15T08:25:33.887Z,47.80
2022-10-15T08:27:37.670Z,46.67
2022-10-15T08:29:40.860Z,46.30
2022-10-15T08:31:44.182Z,46.27
2022-10-15T08:33:47.470Z,48.43
2022-10-15T08:35:52.157Z,45.37
2022-10-15T08:37:55.930Z,45.50
2022-10-15T08:39:59.122Z,46.33
2022-10-15T08:42:04.857Z,49.27
2022-10-15T08:44:09.009Z,45.27
2022-10-15T08:46:14.321Z,47.13
2022-10-15T08:48:22.886Z,47.97
2022-10-15T08:50:35.624Z,47.57
2022-10-15T08:52:43.893Z,48.30
2022-10-15T08:54:47.493Z,50.20
2022-10-15T08:56:54.268Z,45.83
2022-10-15T08:59:03.514Z,47.87
2022-10-15T09:01:08.581Z,45.97
2022-10-15T09:03:20.201Z,47.23
2022-10-15T09:05:37.656Z,52.07
2022-10-15T09:07:52.106Z,48.80
2022-10-15T09:10:07.392Z,46.53
2022-10-15T09:12:21.469Z,47.60
2022-10-15T09:14:27.452Z,48.10
2022-10-15T09:16:35.493Z,43.97
2022-10-15T09:18:43.013Z,47.97
2022-10-15T09:20:47.074Z,49.27
2022-10-15T09:22:52.985Z,47.63
2022-10-15T09:24:56.909Z,48.50
2022-10-15T09:27:04.520Z,48.80
2022-10-15T09:29:14.634Z,47.37
2022-10-15T09:31:21.603Z,45.57
2022-10-15T09:33:31.920Z,45.93
2022-10-15T09:35:40.465Z,49.20
2022-10-15T09:37:50.358Z,46.57
2022-10-15T09:40:04.140Z,46.20
2022-10-15T09:42:15.625Z,45.13
2022-10-15T09:44:21.184Z,47.27
2022-10-15T09:46:25.938Z,42.60
2022-10-15T09:48:30.105Z,47.57
2022-10-15T09:50:41.994Z,45.57
2022-10-15T09:52:56.261Z,47.00
2022-10-15T09:55:10.760Z,47.60
2022-10-15T09:57:16.594Z,45.60
2022-10-15T09:59:20.975Z,44.33
2022-10-15T10:01:24.931Z,42.90
2022-10-15T10:03:29.398Z,40.97
2022-10-15T10:05:33.697Z,40.17
2022-10-15T10:07:38.421Z,42.60
2022-10-15T10:09:51.642Z,41.03
2022-10-15T10:11:58.313Z,42.87
2022-10-15T10:14:02.952Z,42.50
2022-10-15T10:16:07.876Z,43.03
2022-10-15T10:18:20.188Z,42.77
2022-10-15T10:20:25.294Z,45.23
2022-10-15T10:22:28.613Z,43.80
2022-10-15T10:24:34.641Z,45.60
2022-10-15T10:26:38.240Z,45.57
2022-10-15T10:28:48.197Z,43.73
2022-10-15T10:30:54.543Z,44.93
2022-10-15T10:32:58.545Z,43.50
2022-10-15T10:35:02.805Z,44.40
2022-10-15T10:37:07.776Z,41.70
2022-10-15T10:39:22.382Z,43.13
2022-10-15T10:41:45.701Z,45.50
2022-10-15T10:43:56.589Z,42.13
2022-10-15T10:46:01.949Z,44.60
2022-10-15T10:48:19.583Z,41.87
2022-10-15T10:50:29.872Z,40.07
2022-10-15T10:52:34.241Z,41.03
2022-10-15T10:54:37.979Z,42.97
2022-10-15T10:56:43.027Z,40.80
2022-10-15T10:58:46.631Z,42.87
2022-10-15T11:00:53.062Z,42.20
2022-10-15T11:02:56.857Z,41.37
2022-10-15T11:05:00.439Z,41.30
2022-10-15T11:07:06.404Z,42.50
2022-10-15T11:09:19.085Z,41.50
2022-10-15T11:11:29.661Z,43.70
2022-10-15T11:13:39.996Z,46.30
2022-10-15T11:15:47.858Z,45.90
2022-10-15T11:17:56.776Z,46.00
2022-10-15T11:20:26.662Z,45.83
2022-10-15T11:22:33.668Z,46.00
2022-10-15T11:24:48.709Z,44.40
2022-10-15T11:27:10.763Z,48.53
2022-10-15T11:29:18.662Z,46.40
2022-10-15T11:31:27.498Z,45.00
2022-10-15T11:33:46.296Z,46.83
2022-10-15T11:35:54.366Z,46.00
2022-10-15T11:38:02.976Z,44.77
2022-10-15T11:40:16.061Z,42.97
2022-10-15T11:42:21.541Z,48.73
2022-10-15T11:44:32.759Z,49.63
2022-10-15T11:46:42.796Z,49.50
2022-10-15T11:48:56.446Z,48.60
2022-10-15T11:51:09.079Z,49.47
2022-10-15T11:53:45.587Z,48.00
2022-10-15T11:55:52.175Z,47.10
2022-10-15T11:58:00.802Z,50.60
2022-10-15T12:00:06.513Z,49.07
2022-10-15T12:02:13.909Z,48.50
2022-10-15T12:04:21.106Z,47.47
2022-10-15T12:06:26.927Z,46.37
2022-10-15T12:08:32.263Z,47.13
2022-10-15T12:10:40.531Z,47.80
2022-10-15T12:12:48.122Z,51.60
2022-10-15T12:14:59.851Z,50.67
2022-10-15T12:17:06.627Z,49.13
2022-10-15T12:19:17.243Z,49.10
2022-10-15T12:21:35.686Z,49.20
2022-10-15T12:23:45.041Z,50.10
2022-10-15T12:25:48.720Z,48.47
2022-10-15T12:28:01.533Z,51.10
2022-10-15T12:30:32.371Z,50.20
2022-10-15T12:32:39.584Z,50.37
2022-10-15T12:34:44.066Z,50.13
2022-10-15T12:36:47.869Z,47.20
2022-10-15T12:38:58.633Z,48.83
2022-10-15T12:41:04.001Z,47.97
2022-10-15T12:43:14.118Z,47.67
2022-10-15T12:45:22.322Z,48.73
2022-10-15T12:47:44.693Z,47.70
2022-10-15T12:49:54.345Z,46.93
2022-10-15T12:51:58.127Z,49.90
2022-10-15T12:54:03.093Z,50.27
2022-10-15T12:56:23.879Z,50.47
2022-10-15T12:58:35.447Z,47.20
2022-10-15T13:00:40.175Z,45.90
2022-10-15T13:02:45.642Z,46.93
2022-10-15T13:04:49.080Z,50.00
2022-10-15T13:06:53.496Z,48.50
2022-10-15T13:08:59.857Z,48.13
2022-10-15T13:11:05.020Z,47.40
2022-10-15T13:13:14.096Z,45.87
2022-10-15T13:15:18.054Z,46.57
2022-10-15T13:17:22.782Z,46.37
2022-10-15T13:19:29.291Z,46.00
2022-10-15T13:21:50.760Z,46.17
2022-10-15T13:23:54.277Z,45.60
2022-10-15T13:26:13.264Z,44.00
2022-10-15T13:28:32.251Z,44.20
2022-10-15T13:30:35.711Z,45.13
2022-10-15T13:32:41.990Z,45.03
2022-10-15T13:34:46.407Z,46.47
2022-10-15T13:36:50.185Z,43.03
2022-10-15T13:38:55.466Z,43.90
2022-10-15T13:40:59.020Z,46.20
2022-10-15T13:43:02.819Z,46.47
2022-10-15T13:45:17.891Z,46.30
2022-10-15T13:47:26.468Z,43.87
2022-10-15T13:49:29.954Z,45.07
2022-10-15T13:51:40.053Z,43.90
2022-10-15T13:53:43.917Z,42.73
2022-10-15T13:55:48.930Z,41.60
2022-10-15T13:57:56.845Z,41.33
2022-10-15T14:00:00.344Z,41.70
2022-10-15T14:02:05.553Z,41.20
2022-10-15T14:04:17.575Z,41.57
2022-10-15T14:06:21.821Z,41.13
2022-10-15T14:08:28.459Z,41.47
2022-10-15T14:10:32.461Z,41.00
2022-10-15T14:12:36.137Z,40.93
2022-10-15T14:14:41.678Z,42.13
2022-10-15T14:16:48.114Z,38.83
2022-10-15T14:18:54.294Z,42.93
2022-10-15T14:20:58.054Z,38.50
2022-10-15T14:23:01.642Z,41.40
2022-10-15T14:25:10.646Z,40.20
2022-10-15T14:27:16.345Z,40.53
2022-10-15T14:29:23.027Z,39.97
2022-10-15T14:31:32.689Z,40.57
2022-10-15T14:33:44.052Z,42.07
2022-10-15T14:36:05.358Z,40.87
2022-10-15T14:41:27.615Z,42.40
2022-10-15T14:43:34.289Z,39.67
2022-10-15T14:45:42.506Z,40.07
2022-10-15T14:47:47.216Z,41.90
2022-10-15T14:49:51.851Z,40.77
2022-10-15T14:52:02.273Z,40.13
2022-10-15T14:54:05.928Z,42.63
2022-10-15T14:56:11.819Z,41.50
2022-10-15T14:58:18.510Z,42.40
2022-10-15T15:00:25.732Z,40.20
2022-10-15T15:02:30.177Z,40.43
2022-10-15T15:04:38.090Z,41.63
2022-10-15T15:06:41.625Z,41.67
2022-10-15T15:08:46.634Z,39.33
2022-10-15T15:10:50.992Z,40.77
2022-10-15T15:12:55.551Z,41.03
2022-10-15T15:14:59.353Z,41.47
2022-10-15T15:17:02.988Z,42.73
2022-10-15T15:19:07.915Z,40.07
2022-10-15T15:21:13.310Z,38.37
2022-10-15T15:23:19.283Z,40.50
2022-10-15T15:25:27.002Z,41.10
2022-10-15T15:27:31.791Z,40.50
2022-10-15T15:29:35.464Z,41.10
2022-10-15T15:31:38.865Z,43.70
2022-10-15T15:33:42.398Z,44.37
2022-10-15T15:35:51.122Z,43.07
2022-10-15T15:37:54.866Z,35.77
2022-10-15T15:39:58.406Z,37.50
2022-10-15T15:42:03.273Z,40.63
2022-10-15T15:44:07.486Z,41.50
2022-10-15T15:46:11.712Z,48.67
2022-10-15T15:48:15.306Z,49.53
2022-10-15T15:50:19.051Z,46.73
2022-10-15T15:52:22.711Z,51.23
2022-10-15T15:54:26.597Z,43.20
2022-10-15T15:56:29.706Z,53.40
2022-10-15T15:58:34.507Z,51.30
2022-10-15T16:00:37.723Z,49.37
2022-10-15T16:02:41.189Z,47.10
2022-10-15T16:04:45.573Z,49.97
2022-10-15T16:06:48.891Z,49.03
2022-10-15T16:08:53.206Z,47.90
2022-10-15T16:10:56.567Z,47.60
2022-10-15T16:12:59.749Z,46.10
2022-10-15T16:15:04.438Z,49.73
2022-10-15T16:17:07.589Z,56.07
2022-10-15T16:19:10.773Z,54.30
2022-10-15T16:21:14.006Z,55.17
2022-10-15T16:23:17.540Z,50.60
2022-10-15T16:25:21.438Z,52.10
2022-10-15T16:27:27.190Z,53.00
2022-10-15T16:29:30.727Z,51.57
2022-10-15T16:31:37.027Z,54.27
2022-10-15T16:33:40.186Z,48.07
2022-10-15T16:35:43.500Z,53.00
2022-10-15T16:37:46.916Z,51.33
2022-10-15T16:39:50.067Z,47.90
2022-10-15T16:41:53.270Z,50.70
2022-10-15T16:43:56.526Z,49.57
2022-10-15T16:46:00.395Z,49.10
2022-10-15T16:48:06.349Z,51.80
2022-10-15T16:50:10.460Z,49.23
2022-10-15T16:52:13.644Z,49.83
2022-10-15T16:54:17.239Z,45.43
2022-10-15T16:56:22.420Z,49.57
2022-10-15T16:58:25.798Z,51.07
2022-10-15T17:00:29.086Z,54.13
2022-10-15T17:02:32.322Z,57.47
2022-10-15T17:04:37.005Z,55.40
2022-10-15T17:06:40.238Z,67.60
2022-10-15T17:08:46.948Z,61.93
2022-10-15T17:10:50.919Z,55.33
2022-10-15T17:12:54.514Z,58.90
2022-10-15T17:14:58.112Z,64.10
2022-10-15T17:17:01.435Z,56.43
2022-10-15T17:19:04.962Z,56.27
2022-10-15T17:21:11.479Z,66.30
2022-10-15T17:23:15.480Z,63.27
2022-10-15T17:25:19.541Z,57.13
2022-10-15T17:27:22.763Z,59.70
2022-10-15T17:29:29.165Z,59.10
2022-10-15T17:31:37.246Z,57.83
2022-10-15T17:33:42.001Z,53.33
2022-10-15T17:35:45.786Z,54.47
2022-10-15T17:37:50.374Z,70.00
2022-10-15T17:39:53.729Z,75.80
2022-10-15T17:41:57.086Z,86.10
2022-10-15T17:44:00.424Z,106.73
2022-10-15T17:46:06.723Z,71.20
2022-10-15T17:48:09.907Z,61.50
2022-10-15T17:50:14.545Z,57.63
2022-10-15T17:52:18.134Z,55.17
2022-10-15T17:54:22.852Z,59.07
2022-10-15T17:56:28.275Z,56.13
2022-10-15T17:58:31.494Z,58.10
2022-10-15T18:00:35.037Z,58.43
2022-10-15T18:02:38.547Z,58.77
2022-10-15T18:04:42.226Z,62.33
2022-10-15T18:06:45.970Z,55.63
2022-10-15T18:08:49.529Z,63.63
2022-10-15T18:10:54.950Z,68.27
2022-10-15T18:12:58.503Z,68.53
2022-10-15T18:15:02.510Z,63.27
2022-10-15T18:17:07.133Z,62.83
2022-10-15T18:19:10.630Z,66.53
2022-10-15T18:21:17.337Z,60.10
2022-10-15T18:23:21.145Z,63.70
2022-10-15T18:25:24.588Z,58.60
2022-10-15T18:27:29.314Z,67.37
2022-10-15T18:29:32.820Z,70.40
2022-10-15T18:31:36.093Z,70.83
2022-10-15T18:33:41.067Z,65.03
2022-10-15T18:35:44.412Z,62.47
2022-10-15T18:37:49.456Z,65.67
2022-10-15T18:39:52.838Z,59.97
2022-10-15T18:41:56.382Z,60.40
2022-10-15T18:44:02.451Z,58.37
2022-10-15T18:46:05.637Z,56.00
2022-10-15T18:48:08.884Z,56.50
2022-10-15T18:50:12.225Z,59.40
2022-10-15T18:52:28.084Z,54.17
2022-10-15T18:54:39.222Z,54.47
2022-10-15T18:56:42.509Z,53.87
2022-10-15T18:58:45.899Z,57.00
2022-10-15T19:00:50.557Z,58.17
2022-10-15T19:02:53.905Z,55.00
2022-10-15T19:04:57.205Z,53.90
2022-10-15T19:07:03.654Z,54.67
2022-10-15T19:09:10.027Z,61.03
2022-10-15T19:11:13.276Z,54.60
2022-10-15T19:13:16.395Z,55.23
2022-10-15T19:15:19.586Z,55.47
2022-10-15T19:17:24.382Z,70.50
2022-10-15T19:19:27.904Z,57.90
2022-10-15T19:21:31.816Z,58.50
2022-10-15T19:23:35.714Z,61.40
2022-10-15T19:25:42.788Z,60.70
2022-10-15T19:27:45.996Z,61.47
2022-10-15T19:29:49.266Z,62.30
2022-10-15T19:31:54.294Z,67.40
2022-10-15T19:33:59.225Z,62.53
2022-10-15T19:36:02.528Z,58.10
2022-10-15T19:38:05.810Z,60.90
2022-10-15T19:40:10.455Z,54.83
2022-10-15T19:42:13.667Z,55.57
2022-10-15T19:44:19.661Z,56.60
2022-10-15T19:46:23.376Z,52.60
2022-10-15T19:48:26.729Z,51.97
2022-10-15T19:50:31.354Z,57.20
2022-10-15T19:52:34.435Z,52.73
2022-10-15T19:54:38.168Z,57.40
2022-10-15T19:56:42.992Z,54.30
2022-10-15T19:58:46.276Z,54.57
2022-10-15T20:00:49.913Z,51.97
2022-10-15T20:02:53.580Z,51.63
2022-10-15T20:04:56.970Z,55.53
2022-10-15T20:07:01.595Z,53.10
2022-10-15T20:09:05.222Z,51.60
2022-10-15T20:11:09.189Z,44.83
2022-10-15T20:13:13.401Z,44.47
2022-10-15T20:15:16.754Z,50.27
2022-10-15T20:17:20.414Z,53.33
2022-10-15T20:19:23.636Z,55.60
2022-10-15T20:21:26.802Z,53.50
2022-10-15T20:23:31.362Z,54.17
2022-10-15T20:25:34.805Z,52.97
2022-10-15T20:27:38.005Z,51.10
2022-10-15T20:29:41.279Z,57.60
2022-10-15T20:31:44.599Z,51.27
2022-10-15T20:33:48.724Z,47.00
2022-10-15T20:35:51.862Z,49.70
2022-10-15T20:37:55.137Z,51.37
2022-10-15T20:40:00.943Z,47.90
2022-10-15T20:42:04.384Z,49.07
2022-10-15T20:44:07.521Z,50.07
2022-10-15T20:46:14.050Z,53.77
2022-10-15T20:48:20.013Z,53.77
2022-10-15T20:50:26.669Z,52.47
2022-10-15T20:52:29.859Z,51.30
2022-10-15T20:54:33.640Z,56.77
2022-10-15T20:56:38.889Z,52.80
2022-10-15T20:58:42.103Z,53.57
2022-10-15T21:00:46.438Z,49.60
2022-10-15T21:02:49.673Z,52.13
2022-10-15T21:04:53.453Z,50.70
2022-10-15T21:06:57.299Z,57.20
2022-10-15T21:09:00.980Z,52.33
2022-10-15T21:11:05.597Z,50.30
2022-10-15T21:13:10.321Z,50.87
2022-10-15T21:15:13.515Z,51.10
2022-10-15T21:17:16.934Z,54.17
2022-10-15T21:19:20.557Z,49.40
2022-10-15T21:21:23.701Z,49.73
2022-10-15T21:23:26.881Z,50.10
2022-10-15T21:25:30.196Z,52.90
2022-10-15T21:27:33.427Z,48.00
2022-10-15T21:29:38.601Z,51.57
2022-10-15T21:31:41.726Z,50.40
2022-10-15T21:33:46.176Z,51.17
2022-10-15T21:35:49.756Z,49.43
2022-10-15T21:37:52.874Z,51.47
2022-10-15T21:39:56.135Z,50.20
2022-10-15T21:41:59.424Z,47.50
2022-10-15T21:44:03.402Z,49.00
2022-10-15T21:46:10.609Z,52.93
2022-10-15T21:48:14.137Z,50.00
2022-10-15T21:50:17.676Z,49.73
2022-10-15T21:52:21.238Z,48.80
2022-10-15T21:54:24.437Z,51.90
2022-10-15T21:56:27.910Z,49.47
2022-10-15T21:58:31.425Z,46.00
2022-10-15T22:00:36.192Z,46.90
2022-10-15T22:02:40.853Z,45.70
2022-10-15T22:04:44.521Z,46.90
2022-10-15T22:06:47.846Z,44.83
2022-10-15T22:08:51.602Z,44.03
2022-10-15T22:10:54.793Z,48.20
2022-10-15T22:12:58.474Z,46.00
2022-10-15T22:15:01.681Z,45.77
2022-10-15T22:17:05.631Z,47.70
2022-10-15T22:19:14.397Z,43.87
2022-10-15T22:21:20.247Z,45.17
2022-10-15T22:23:26.970Z,46.30
2022-10-15T22:25:31.033Z,45.27
2022-10-15T22:27:34.196Z,41.27
2022-10-15T22:29:37.542Z,43.50
2022-10-15T22:31:40.790Z,44.17
2022-10-15T22:33:45.014Z,44.83
2022-10-15T22:35:49.529Z,42.90
2022-10-15T22:37:55.217Z,43.97
2022-10-15T22:39:58.612Z,41.50
2022-10-15T22:42:01.825Z,44.80
2022-10-15T22:44:05.837Z,47.40
2022-10-15T22:46:09.228Z,48.87
2022-10-15T22:48:12.438Z,44.00
2022-10-15T22:50:16.461Z,46.90
2022-10-15T22:52:21.214Z,47.00
2022-10-15T22:54:24.763Z,45.87
2022-10-15T22:56:28.752Z,45.47
2022-10-15T22:58:33.677Z,48.43
2022-10-15T23:00:36.783Z,49.20
2022-10-15T23:02:39.986Z,44.50
2022-10-15T23:04:43.165Z,49.43
2022-10-15T23:06:46.447Z,46.77
2022-10-15T23:08:51.747Z,48.37
2022-10-15T23:10:55.245Z,44.17
2022-10-15T23:12:58.755Z,44.73
2022-10-15T23:15:02.162Z,43.13
2022-10-15T23:17:05.267Z,43.63
2022-10-15T23:19:12.278Z,44.90
2022-10-15T23:21:18.026Z,41.53
2022-10-15T23:23:21.311Z,43.17
2022-10-15T23:25:25.938Z,41.87
2022-10-15T23:27:29.513Z,41.47
2022-10-15T23:29:32.977Z,44.43
2022-10-15T23:31:37.309Z,42.43
2022-10-15T23:33:40.631Z,38.83
2022-10-15T23:35:44.012Z,40.00
2022-10-15T23:37:47.549Z,40.17
2022-10-15T23:39:50.753Z,37.60
2022-10-15T23:41:56.404Z,37.57
2022-10-15T23:43:59.950Z,42.57
2022-10-15T23:46:04.024Z,38.93
2022-10-15T23:48:07.813Z,42.90
2022-10-15T23:50:11.557Z,41.73
2022-10-15T23:52:14.794Z,42.20
2022-10-15T23:54:19.577Z,41.90
2022-10-15T23:56:25.789Z,40.67
2022-10-15T23:58:32.190Z,41.40
